Time;durP1;ratioP1;P1;durP2;ratioP2;P2;SDS_P1;SDS_P2;PMS_P1;PMS_P2;Temp;Humidity;BMP_temperature;BMP_pressure;BME280_temperature;BME280_humidity;BME280_pressure;Samples;Min_cycle;Max_cycle;Signal;HPM_P1;HPM_P2
2022/06/10 00:00:44;;;;;;;13.47;6.70;;;12.70;89.30;;;;;;5094231;28;20271;-89
2022/06/10 00:03:11;;;;;;;17.70;7.20;;;12.50;89.40;;;;;;5094956;28;20687;-90
2022/06/10 00:05:38;;;;;;;21.20;7.70;;;12.50;89.70;;;;;;5094633;28;20192;-90
2022/06/10 00:08:07;;;;;;;23.43;8.37;;;12.30;90.30;;;;;;5093678;28;20186;-89
2022/06/10 00:10:32;;;;;;;15.47;8.70;;;12.20;90.70;;;;;;5094857;28;20171;-89
2022/06/10 00:12:58;;;;;;;22.77;8.13;;;12.20;90.90;;;;;;5094040;28;20202;-91
2022/06/10 00:15:24;;;;;;;10.17;6.20;;;12.20;91.00;;;;;;5093462;28;20179;-89
2022/06/10 00:17:50;;;;;;;16.63;6.47;;;12.30;91.00;;;;;;5094754;28;20178;-89
2022/06/10 00:20:18;;;;;;;16.30;7.27;;;12.20;90.70;;;;;;5094643;28;20167;-89
2022/06/10 00:22:43;;;;;;;18.00;6.40;;;12.20;90.80;;;;;;5093099;28;20680;-89
2022/06/10 00:25:09;;;;;;;21.13;7.83;;;12.30;90.90;;;;;;5093366;28;20176;-89
2022/06/10 00:27:35;;;;;;;21.50;7.10;;;12.30;90.70;;;;;;5093696;28;20170;-89
2022/06/10 00:30:01;;;;;;;12.73;5.73;;;12.30;90.60;;;;;;5093259;28;20248;-89
2022/06/10 00:32:26;;;;;;;9.73;5.07;;;12.30;90.60;;;;;;5094477;28;20197;-89
2022/06/10 00:34:52;;;;;;;9.47;4.33;;;12.30;90.30;;;;;;5094742;28;20667;-89
2022/06/10 00:37:18;;;;;;;9.10;4.43;;;12.30;90.10;;;;;;5094721;28;20177;-89
2022/06/10 00:39:44;;;;;;;14.63;4.87;;;12.20;90.00;;;;;;5093110;28;20251;-89
2022/06/10 00:42:11;;;;;;;14.13;4.70;;;12.20;89.60;;;;;;5094196;28;20171;-89
2022/06/10 00:44:41;;;;;;;9.93;4.33;;;12.20;89.40;;;;;;5094041;28;20202;-89
2022/06/10 00:47:20;;;;;;;12.80;5.30;;;12.20;89.20;;;;;;5094137;28;20182;-89
2022/06/10 00:49:55;;;;;;;8.97;4.70;;;12.20;89.00;;;;;;5094088;28;20171;-89
2022/06/10 00:52:29;;;;;;;10.30;4.77;;;12.10;88.60;;;;;;5094164;28;20290;-89
2022/06/10 00:54:56;;;;;;;12.13;4.83;;;12.10;88.40;;;;;;5093550;28;20180;-89
2022/06/10 00:57:27;;;;;;;9.40;4.17;;;12.00;88.20;;;;;;5092903;28;20189;-89
2022/06/10 01:00:06;;;;;;;9.70;4.30;;;12.00;87.90;;;;;;5092862;28;20174;-89
2022/06/10 01:02:35;;;;;;;13.53;4.20;;;11.90;87.40;;;;;;5092742;28;20703;-89
2022/06/10 01:05:03;;;;;;;8.97;3.90;;;11.80;87.20;;;;;;5092580;28;20202;-89
2022/06/10 01:07:36;;;;;;;13.00;3.77;;;11.70;86.90;;;;;;5093707;28;20252;-89
2022/06/10 01:10:06;;;;;;;10.87;4.40;;;11.60;87.00;;;;;;5094053;28;20163;-89
2022/06/10 01:12:51;;;;;;;8.60;3.70;;;11.60;87.00;;;;;;5093178;28;20270;-89
2022/06/10 01:15:39;;;;;;;8.40;4.40;;;11.60;87.00;;;;;;5092473;28;20163;-89
2022/06/10 01:18:50;;;;;;;7.77;4.60;;;11.60;87.00;;;;;;5092604;28;20167;-89
2022/06/10 01:21:33;;;;;;;13.03;5.60;;;11.60;87.00;;;;;;5054621;28;20668;-89
2022/06/10 01:24:44;;;;;;;20.27;8.13;;;11.60;87.10;;;;;;5054472;28;20207;-89
2022/06/10 01:27:49;;;;;;;16.67;8.37;;;11.70;89.00;;;;;;5092428;28;20190;-89
2022/06/10 01:30:26;;;;;;;18.33;9.27;;;11.70;90.00;;;;;;5092308;28;20185;-89
2022/06/10 01:33:23;;;;;;;24.23;10.50;;;11.60;90.50;;;;;;5092289;28;20194;-89
2022/06/10 01:36:02;;;;;;;19.97;10.87;;;11.60;91.20;;;;;;5092347;28;20258;-89
2022/06/10 01:38:37;;;;;;;19.37;10.37;;;11.50;91.60;;;;;;5093266;28;20183;-89
2022/06/10 01:41:09;;;;;;;15.80;11.17;;;11.40;91.90;;;;;;5092203;28;20182;-89
2022/06/10 01:43:52;;;;;;;21.23;12.00;;;11.50;92.30;;;;;;5092158;28;20225;-89
2022/06/10 01:46:27;;;;;;;29.70;12.40;;;11.40;92.50;;;;;;5092076;28;20167;-89
2022/06/10 01:49:07;;;;;;;24.13;13.73;;;11.40;92.80;;;;;;5093366;28;20205;-89
2022/06/10 01:51:46;;;;;;;38.03;12.97;;;11.40;93.00;;;;;;5093300;28;20172;-89
2022/06/10 01:54:31;;;;;;;23.10;13.17;;;11.40;93.30;;;;;;5092058;28;20277;-89
2022/06/10 01:57:03;;;;;;;21.90;13.90;;;11.30;93.40;;;;;;5092923;28;20162;-89
2022/06/10 01:59:44;;;;;;;23.07;13.33;;;11.40;93.60;;;;;;5091985;28;20174;-89
2022/06/10 02:02:16;;;;;;;25.40;13.97;;;11.40;93.60;;;;;;5091904;28;20159;-89
2022/06/10 02:04:53;;;;;;;24.53;13.37;;;11.40;93.60;;;;;;5091859;28;20307;-89
2022/06/10 02:07:52;;;;;;;21.80;12.10;;;11.40;93.60;;;;;;5093184;28;20217;-89
2022/06/10 02:10:28;;;;;;;26.50;12.50;;;11.40;93.60;;;;;;5056800;28;20665;-89
2022/06/10 02:13:06;;;;;;;21.80;13.03;;;11.40;93.60;;;;;;5091974;28;20201;-89
2022/06/10 02:15:41;;;;;;;26.03;12.87;;;11.50;93.60;;;;;;5091918;28;20162;-89
2022/06/10 02:18:12;;;;;;;22.57;12.53;;;11.40;93.50;;;;;;5091770;28;20689;-89
2022/06/10 02:20:44;;;;;;;19.33;12.13;;;11.30;93.50;;;;;;5091877;28;20553;-89
2022/06/10 02:23:13;;;;;;;23.27;12.90;;;11.30;93.60;;;;;;5092968;28;20190;-89
2022/06/10 02:25:50;;;;;;;24.87;13.17;;;11.30;93.60;;;;;;5091828;28;20171;-89
2022/06/10 02:28:22;;;;;;;16.87;11.70;;;11.20;93.60;;;;;;5091777;28;20163;-89
2022/06/10 02:30:55;;;;;;;18.93;12.17;;;11.20;93.60;;;;;;5091706;28;20190;-89
2022/06/10 02:33:21;;;;;;;21.47;11.97;;;11.20;93.60;;;;;;5091618;28;20668;-89
2022/06/10 02:36:05;;;;;;;25.97;12.70;;;11.20;93.50;;;;;;5091665;28;20320;-89
2022/06/10 02:38:43;;;;;;;22.07;12.07;;;11.20;93.50;;;;;;5092508;28;20175;-89
2022/06/10 02:41:49;;;;;;;19.17;11.70;;;11.20;93.50;;;;;;5092929;28;20159;-89
2022/06/10 02:44:43;;;;;;;21.03;12.07;;;11.10;93.50;;;;;;5092484;28;20722;-89
2022/06/10 02:47:46;;;;;;;24.97;12.47;;;11.10;93.50;;;;;;5085801;28;20200;-89
2022/06/10 02:50:14;;;;;;;22.70;12.63;;;11.00;93.50;;;;;;5092940;28;20147;-89
2022/06/10 02:52:40;;;;;;;17.57;11.00;;;11.10;93.50;;;;;;5095143;28;20225;-89
2022/06/10 02:55:12;;;;;;;20.97;10.63;;;11.20;93.60;;;;;;5095170;28;20182;-89
2022/06/10 03:03:18;;;;;;;25.07;11.67;;;11.20;93.50;;;;;;5096637;28;20245;-89
2022/06/10 03:06:07;;;;;;;20.00;12.27;;;11.20;93.50;;;;;;5094905;28;20171;-89
2022/06/10 03:08:40;;;;;;;30.40;12.83;;;11.20;93.50;;;;;;5094923;28;20700;-89
2022/06/10 03:11:11;;;;;;;20.07;12.37;;;11.20;93.50;;;;;;5095838;28;20166;-89
2022/06/10 03:14:01;;;;;;;18.80;12.63;;;11.20;93.60;;;;;;5096006;28;20672;-89
2022/06/10 03:16:53;;;;;;;26.63;12.87;;;11.20;93.50;;;;;;5095957;28;20246;-89
2022/06/10 03:19:31;;;;;;;23.33;11.80;;;11.20;93.60;;;;;;5094663;28;20179;-90
2022/06/10 03:22:10;;;;;;;23.93;12.90;;;11.20;93.50;;;;;;5095774;28;20212;-89
2022/06/10 03:25:02;;;;;;;20.90;11.67;;;11.20;93.50;;;;;;5095743;28;20226;-89
2022/06/10 03:28:06;;;;;;;23.93;12.17;;;11.30;93.40;;;;;;5094645;28;20167;-90
2022/06/10 03:30:37;;;;;;;21.53;10.93;;;11.30;93.30;;;;;;5086938;28;20178;-89
2022/06/10 03:33:12;;;;;;;22.50;12.87;;;11.20;93.20;;;;;;5094421;28;20296;-90
2022/06/10 03:35:52;;;;;;;18.53;12.73;;;11.20;93.20;;;;;;5094468;28;20228;-89
2022/06/10 03:38:18;;;;;;;27.07;13.73;;;11.20;93.20;;;;;;5094433;28;20171;-88
2022/06/10 03:40:54;;;;;;;23.93;12.70;;;11.20;93.20;;;;;;5095636;28;20257;-89
2022/06/10 03:43:21;;;;;;;23.13;13.33;;;11.20;93.20;;;;;;5094392;28;20218;-89
2022/06/10 03:45:52;;;;;;;18.80;12.13;;;11.30;93.10;;;;;;5094195;28;20276;-89
2022/06/10 03:48:20;;;;;;;18.50;12.33;;;11.50;93.00;;;;;;5094113;28;20540;-90
2022/06/10 03:50:47;;;;;;;19.47;11.10;;;11.70;92.80;;;;;;5094128;28;20174;-89
2022/06/10 03:53:16;;;;;;;15.43;10.57;;;11.70;92.20;;;;;;5094316;28;20201;-89
2022/06/10 03:55:41;;;;;;;17.60;10.77;;;11.80;92.10;;;;;;5094031;28;20235;-89
2022/06/10 03:58:09;;;;;;;13.73;9.70;;;11.90;91.70;;;;;;5093967;28;20178;-90
2022/06/10 04:00:35;;;;;;;16.73;9.87;;;11.90;91.10;;;;;;5093886;28;20183;-89
2022/06/10 04:03:01;;;;;;;22.20;9.87;;;12.00;90.70;;;;;;5094043;28;20205;-89
2022/06/10 04:05:26;;;;;;;16.67;9.37;;;12.00;90.60;;;;;;5094183;28;20171;-89
2022/06/10 04:07:52;;;;;;;15.57;9.33;;;12.10;90.50;;;;;;5093784;28;20179;-89
2022/06/10 04:10:24;;;;;;;13.47;8.57;;;12.40;90.50;;;;;;5093710;28;20178;-89
2022/06/10 04:12:50;;;;;;;11.57;8.20;;;12.40;89.90;;;;;;5093718;28;20577;-89
2022/06/10 04:15:17;;;;;;;12.80;8.30;;;12.40;89.20;;;;;;5093620;28;20644;-89
2022/06/10 04:17:47;;;;;;;11.80;8.40;;;12.30;89.20;;;;;;5093684;28;20261;-89
2022/06/10 04:20:17;;;;;;;14.87;8.17;;;12.30;89.40;;;;;;5094819;28;20586;-89
2022/06/10 04:22:42;;;;;;;11.40;7.57;;;12.30;89.50;;;;;;5093566;28;20194;-89
2022/06/10 04:25:08;;;;;;;13.77;8.17;;;12.10;89.70;;;;;;5093315;28;20206;-89
2022/06/10 04:27:34;;;;;;;13.57;8.20;;;12.20;90.10;;;;;;5093418;28;20249;-90
2022/06/10 04:30:00;;;;;;;19.73;9.53;;;12.10;90.10;;;;;;5093431;28;20174;-89
2022/06/10 04:32:26;;;;;;;16.67;9.73;;;12.00;90.40;;;;;;5093529;28;20198;-89
2022/06/10 04:34:52;;;;;;;19.17;9.67;;;12.00;90.80;;;;;;5093702;28;20216;-89
2022/06/10 04:37:17;;;;;;;20.37;9.23;;;12.00;91.10;;;;;;5093283;28;20523;-89
2022/06/10 04:39:43;;;;;;;15.67;9.57;;;12.10;91.20;;;;;;5093205;28;20179;-89
2022/06/10 04:42:08;;;;;;;18.33;10.60;;;12.10;91.30;;;;;;5093017;28;20186;-89
2022/06/10 04:44:34;;;;;;;16.53;10.57;;;12.10;91.70;;;;;;5093430;28;20221;-90
2022/06/10 04:47:00;;;;;;;14.40;11.03;;;12.20;91.90;;;;;;5093030;28;20181;-89
2022/06/10 04:49:25;;;;;;;14.00;10.23;;;12.20;92.40;;;;;;5093029;28;20185;-89
2022/06/10 04:51:51;;;;;;;17.60;11.40;;;12.30;92.70;;;;;;5093166;28;20228;-89
2022/06/10 04:54:16;;;;;;;22.03;12.07;;;12.40;93.00;;;;;;5094133;28;20197;-89
2022/06/10 04:56:42;;;;;;;19.63;11.40;;;12.40;93.20;;;;;;5092805;28;20545;-89
2022/06/10 04:59:09;;;;;;;22.00;12.50;;;12.50;93.20;;;;;;5094139;28;20175;-89
2022/06/10 05:01:35;;;;;;;21.10;11.60;;;12.60;93.30;;;;;;5092784;28;20220;-89
2022/06/10 05:04:01;;;;;;;20.17;11.63;;;12.70;93.40;;;;;;5092656;28;20210;-89
2022/06/10 05:06:27;;;;;;;16.43;12.17;;;12.70;93.30;;;;;;5092652;28;20640;-89
2022/06/10 05:08:52;;;;;;;18.60;11.47;;;12.80;93.20;;;;;;5092653;28;20177;-89
2022/06/10 05:11:18;;;;;;;21.87;10.33;;;12.90;93.20;;;;;;5092603;28;20239;-89
2022/06/10 05:13:44;;;;;;;17.87;10.93;;;13.00;92.90;;;;;;5092033;28;20198;-89
2022/06/10 05:16:11;;;;;;;19.47;10.23;;;13.10;92.60;;;;;;5092501;28;20202;-89
2022/06/10 05:18:37;;;;;;;21.07;9.10;;;13.20;92.30;;;;;;5092537;28;20178;-89
2022/06/10 05:21:03;;;;;;;17.77;9.67;;;13.30;91.90;;;;;;5092406;28;20179;-89
2022/06/10 05:23:29;;;;;;;15.00;8.77;;;13.40;91.80;;;;;;5092344;28;20211;-90
2022/06/10 05:25:55;;;;;;;24.93;8.33;;;13.60;91.60;;;;;;5092392;28;20174;-89
2022/06/10 05:28:22;;;;;;;21.47;8.33;;;13.70;91.00;;;;;;5092271;28;20178;-89
2022/06/10 05:30:48;;;;;;;19.30;7.13;;;13.80;90.30;;;;;;5093580;28;20171;-89
2022/06/10 05:33:14;;;;;;;21.60;7.27;;;13.80;89.90;;;;;;5092716;28;20198;-89
2022/06/10 05:35:41;;;;;;;12.90;5.77;;;14.00;89.00;;;;;;5092932;28;20179;-89
2022/06/10 05:38:07;;;;;;;16.37;5.97;;;14.20;88.50;;;;;;5093685;28;20174;-89
2022/06/10 05:40:33;;;;;;;9.30;4.97;;;14.30;88.20;;;;;;5092981;28;20170;-89
2022/06/10 05:43:00;;;;;;;15.53;5.00;;;14.40;88.20;;;;;;5092062;28;20210;-89
2022/06/10 05:45:26;;;;;;;12.63;4.43;;;14.50;87.00;;;;;;5092252;28;20186;-90
2022/06/10 05:47:55;;;;;;;13.40;4.77;;;14.60;86.00;;;;;;5092075;28;20181;-89
2022/06/10 05:50:28;;;;;;;16.03;4.57;;;14.70;84.50;;;;;;5093407;28;20167;-89
2022/06/10 05:52:53;;;;;;;9.97;3.53;;;14.80;84.80;;;;;;5091960;28;20262;-90
2022/06/10 05:55:20;;;;;;;10.37;3.70;;;14.80;83.90;;;;;;5092052;28;20716;-89
2022/06/10 05:57:47;;;;;;;14.53;3.60;;;15.00;83.70;;;;;;5093174;28;20167;-90
2022/06/10 06:00:19;;;;;;;12.00;3.37;;;15.00;82.40;;;;;;5092084;28;20591;-89
2022/06/10 06:02:45;;;;;;;9.07;3.00;;;15.10;83.10;;;;;;5091813;28;20187;-90
2022/06/10 06:05:11;;;;;;;11.87;3.33;;;15.20;82.40;;;;;;5091936;28;20214;-90
2022/06/10 06:07:39;;;;;;;11.57;3.90;;;15.30;81.90;;;;;;5092057;28;20167;-89
2022/06/10 06:10:05;;;;;;;15.33;3.80;;;15.40;81.40;;;;;;5091976;28;20171;-90
2022/06/10 06:12:31;;;;;;;10.57;2.75;;;15.50;80.60;;;;;;5091811;28;20282;-90
2022/06/10 06:14:56;;;;;;;8.07;3.40;;;15.60;80.10;;;;;;5091947;28;20194;-89
2022/06/10 06:17:23;;;;;;;11.23;2.97;;;15.80;79.90;;;;;;5091882;28;20644;-90
2022/06/10 06:19:49;;;;;;;11.68;2.88;;;15.90;80.00;;;;;;5091838;28;20181;-89
2022/06/10 06:22:15;;;;;;;12.02;3.35;;;15.80;78.70;;;;;;5091751;28;20671;-89
2022/06/10 06:24:41;;;;;;;9.50;3.22;;;16.00;79.60;;;;;;5091804;28;20247;-89
2022/06/10 06:27:10;;;;;;;9.13;3.10;;;16.20;79.10;;;;;;5094979;28;20658;-89
2022/06/10 06:29:35;;;;;;;6.32;2.63;;;16.20;77.30;;;;;;5095641;28;20175;-90
2022/06/10 06:32:01;;;;;;;11.63;2.75;;;16.20;76.60;;;;;;5096662;28;20178;-89
2022/06/10 06:34:27;;;;;;;9.10;3.25;;;16.20;76.40;;;;;;5096875;28;20542;-89
2022/06/10 06:36:54;;;;;;;17.45;3.50;;;16.30;77.60;;;;;;5096755;28;20167;-89
2022/06/10 06:39:23;;;;;;;8.80;2.60;;;16.30;76.10;;;;;;5095480;28;20174;-89
2022/06/10 06:41:50;;;;;;;8.07;2.35;;;16.40;76.80;;;;;;5095495;28;20175;-89
2022/06/10 06:44:16;;;;;;;9.95;3.50;;;16.50;76.20;;;;;;5095240;28;20297;-89
2022/06/10 06:46:43;;;;;;;9.60;2.47;;;16.60;76.60;;;;;;5095441;28;20170;-89
2022/06/10 06:49:13;;;;;;;7.60;2.60;;;16.70;75.00;;;;;;5095278;28;20262;-90
2022/06/10 06:51:40;;;;;;;9.60;2.78;;;16.70;74.90;;;;;;5095288;28;20648;-90
2022/06/10 06:54:06;;;;;;;9.05;2.65;;;16.80;75.30;;;;;;5095537;28;20234;-90
2022/06/10 06:56:32;;;;;;;13.90;2.47;;;16.80;73.20;;;;;;5095191;28;20182;-89
2022/06/10 06:58:58;;;;;;;11.48;2.35;;;16.80;73.20;;;;;;5095217;28;20644;-89
2022/06/10 07:01:24;;;;;;;8.80;2.50;;;16.80;73.30;;;;;;5095152;28;20213;-89
2022/06/10 07:03:49;;;;;;;9.43;2.63;;;16.80;72.60;;;;;;5096081;28;20198;-90
2022/06/10 07:06:15;;;;;;;8.68;2.53;;;16.90;72.00;;;;;;5094993;28;20216;-89
2022/06/10 07:08:41;;;;;;;11.77;2.65;;;17.00;73.40;;;;;;5094973;28;20542;-89
2022/06/10 07:11:08;;;;;;;14.30;2.35;;;17.10;71.20;;;;;;5095240;28;20174;-90
2022/06/10 07:13:35;;;;;;;7.93;2.30;;;17.20;72.60;;;;;;5095216;28;20263;-89
2022/06/10 07:16:01;;;;;;;8.48;2.70;;;17.30;71.40;;;;;;5094987;28;20175;-89
2022/06/10 07:18:28;;;;;;;7.22;2.10;;;17.20;71.60;;;;;;5095209;28;20178;-90
2022/06/10 07:20:54;;;;;;;10.60;2.75;;;17.40;70.40;;;;;;5094908;28;20261;-90
2022/06/10 07:23:19;;;;;;;9.02;2.30;;;17.40;70.20;;;;;;5094505;28;20349;-89
2022/06/10 07:25:46;;;;;;;10.30;2.75;;;17.60;70.00;;;;;;5095804;28;20692;-89
2022/06/10 07:28:13;;;;;;;7.63;2.22;;;17.50;69.30;;;;;;5094569;28;20174;-89
2022/06/10 07:30:39;;;;;;;12.52;2.63;;;17.60;71.10;;;;;;5094670;28;20171;-89
2022/06/10 07:33:05;;;;;;;11.93;2.35;;;17.70;70.70;;;;;;5094373;28;20554;-89
2022/06/10 07:35:31;;;;;;;8.98;2.28;;;17.70;68.50;;;;;;5095053;28;20205;-89
2022/06/10 07:37:59;;;;;;;13.52;2.85;;;17.80;68.30;;;;;;5093964;28;20296;-90
2022/06/10 07:43:16;;;;;;;7.22;2.10;;;17.80;66.80;;;;;;5095584;28;20224;-90
2022/06/10 07:45:42;;;;;;;10.10;1.98;;;18.00;68.10;;;;;;5094247;28;20220;-90
2022/06/10 07:48:10;;;;;;;6.45;2.58;;;18.10;67.30;;;;;;5094174;28;20275;-90
2022/06/10 07:50:36;;;;;;;13.10;2.17;;;18.20;67.30;;;;;;5094142;28;20171;-90
2022/06/10 07:53:02;;;;;;;9.60;1.88;;;18.30;68.20;;;;;;5094036;28;20292;-89
2022/06/10 07:55:28;;;;;;;9.63;2.70;;;18.60;68.70;;;;;;5093995;28;20632;-91
2022/06/10 07:57:54;;;;;;;10.13;3.53;;;18.60;65.90;;;;;;5093952;28;20167;-91
2022/06/10 08:00:20;;;;;;;10.65;2.97;;;18.70;66.10;;;;;;5094018;28;20163;-91
2022/06/10 08:02:46;;;;;;;10.50;3.25;;;18.70;66.10;;;;;;5094643;28;20190;-91
2022/06/10 08:05:15;;;;;;;11.52;2.25;;;18.70;66.00;;;;;;5093772;28;20198;-89
2022/06/10 08:07:41;;;;;;;7.57;2.58;;;18.80;62.80;;;;;;5094947;28;20171;-87
2022/06/10 08:10:15;;;;;;;15.18;3.42;;;18.70;64.00;;;;;;5093687;28;20182;-88
2022/06/10 08:12:40;;;;;;;11.40;2.53;;;18.80;65.00;;;;;;5093634;28;20191;-88
2022/06/10 08:15:06;;;;;;;16.55;3.10;;;18.90;65.70;;;;;;5093595;28;20204;-87
2022/06/10 08:17:32;;;;;;;14.27;3.33;;;18.80;64.60;;;;;;5094941;28;20179;-88
2022/06/10 08:19:57;;;;;;;8.82;2.50;;;18.90;64.40;;;;;;5093668;28;20640;-90
2022/06/10 08:22:38;;;;;;;5.72;1.90;;;19.20;63.90;;;;;;5093920;28;20202;-88
2022/06/10 08:25:06;;;;;;;9.15;2.38;;;19.10;63.40;;;;;;5095254;28;20187;-88
2022/06/10 08:27:32;;;;;;;10.85;2.53;;;19.00;62.60;;;;;;5093322;28;20171;-88
2022/06/10 08:29:58;;;;;;;10.57;2.20;;;19.20;63.70;;;;;;5093222;28;20270;-88
2022/06/10 08:32:24;;;;;;;8.18;2.35;;;19.50;61.80;;;;;;5093559;28;20285;-89
2022/06/10 08:34:50;;;;;;;8.50;2.42;;;19.50;63.70;;;;;;5093350;28;20175;-89
2022/06/10 08:37:16;;;;;;;9.75;2.78;;;19.70;63.40;;;;;;5094059;28;20181;-88
2022/06/10 08:39:42;;;;;;;11.20;2.95;;;19.50;60.70;;;;;;5094783;28;20175;-90
2022/06/10 08:42:15;;;;;;;6.15;2.50;;;19.40;62.40;;;;;;5093748;28;20239;-88
2022/06/10 08:44:51;;;;;;;10.85;2.40;;;19.80;61.80;;;;;;5092905;28;20210;-89
2022/06/10 08:47:39;;;;;;;7.65;2.35;;;19.80;62.70;;;;;;5093254;28;20177;-89
2022/06/10 08:50:22;;;;;;;8.45;2.30;;;19.80;62.00;;;;;;5092479;28;20270;-89
2022/06/10 08:53:00;;;;;;;9.80;2.30;;;19.90;61.20;;;;;;5092912;28;20191;-88
2022/06/10 08:55:51;;;;;;;11.60;2.42;;;20.00;60.70;;;;;;5092941;28;20173;-88
2022/06/10 08:58:26;;;;;;;13.80;2.33;;;20.20;60.40;;;;;;5094265;28;20162;-88
2022/06/10 09:00:55;;;;;;;10.52;2.28;;;20.00;58.50;;;;;;5093001;28;20196;-89
2022/06/10 09:03:29;;;;;;;10.15;2.67;;;20.20;61.10;;;;;;5094158;28;20194;-89
2022/06/10 09:05:59;;;;;;;17.08;2.95;;;20.40;59.90;;;;;;5092942;28;20602;-88
2022/06/10 09:08:37;;;;;;;9.32;2.17;;;20.60;60.30;;;;;;5094075;28;20714;-89
2022/06/10 09:11:19;;;;;;;11.70;2.60;;;20.60;58.70;;;;;;5092743;28;20546;-89
2022/06/10 09:13:57;;;;;;;9.73;2.55;;;20.50;56.70;;;;;;5092625;28;20230;-89
2022/06/10 09:16:42;;;;;;;11.05;3.20;;;20.70;59.50;;;;;;5092596;28;20178;-89
2022/06/10 09:19:22;;;;;;;10.45;3.20;;;20.60;58.60;;;;;;5093779;28;20163;-88
2022/06/10 09:21:58;;;;;;;11.18;2.70;;;20.60;59.20;;;;;;5093776;28;20155;-89
2022/06/10 09:24:35;;;;;;;13.90;3.47;;;20.70;59.50;;;;;;5093338;28;20247;-89
2022/06/10 09:27:10;;;;;;;11.60;2.83;;;20.40;58.00;;;;;;5092497;28;20187;-88
2022/06/10 09:29:38;;;;;;;11.43;2.83;;;20.40;59.10;;;;;;5093756;28;20395;-88
2022/06/10 09:32:34;;;;;;;8.20;2.65;;;20.80;60.00;;;;;;5092228;28;20174;-89
2022/06/10 09:35:25;;;;;;;11.30;2.40;;;21.20;59.10;;;;;;5093106;28;20254;-88
2022/06/10 09:38:09;;;;;;;7.55;2.33;;;21.10;57.70;;;;;;5073224;28;20187;-88
2022/06/10 09:40:55;;;;;;;8.55;2.30;;;20.90;57.90;;;;;;5092167;28;20261;-89
2022/06/10 09:43:56;;;;;;;9.07;2.22;;;20.50;59.50;;;;;;5091949;28;20220;-89
2022/06/10 09:46:50;;;;;;;8.18;2.42;;;20.60;58.00;;;;;;5093419;28;20154;-87
2022/06/10 09:49:41;;;;;;;10.18;2.80;;;20.70;59.80;;;;;;5093066;28;20628;-89
2022/06/10 09:52:19;;;;;;;11.05;2.78;;;21.30;56.40;;;;;;5093283;28;20159;-89
2022/06/10 09:54:48;;;;;;;10.45;2.38;;;21.60;56.50;;;;;;5092180;28;20599;-89
2022/06/10 09:57:40;;;;;;;9.00;2.70;;;21.20;55.80;;;;;;5092423;28;20181;-89
2022/06/10 10:00:21;;;;;;;10.35;3.65;;;21.40;57.30;;;;;;5093624;28;20162;-89
2022/06/10 10:03:20;;;;;;;12.00;2.42;;;20.80;56.60;;;;;;5096216;28;20257;-89
2022/06/10 10:06:01;;;;;;;9.18;3.20;;;20.90;58.70;;;;;;5097466;28;20651;-89
2022/06/10 10:08:32;;;;;;;13.82;3.38;;;20.70;58.40;;;;;;5097392;28;20194;-88
2022/06/10 10:11:20;;;;;;;7.57;2.80;;;21.10;57.80;;;;;;5096147;28;20171;-89
2022/06/10 10:14:03;;;;;;;9.23;2.80;;;21.40;57.30;;;;;;5096549;28;20630;-89
2022/06/10 10:17:13;;;;;;;9.23;2.53;;;21.40;56.30;;;;;;5096187;28;20163;-89
2022/06/10 10:19:54;;;;;;;8.90;2.10;;;21.30;56.50;;;;;;5093686;28;20186;-89
2022/06/10 10:22:28;;;;;;;9.10;2.65;;;21.30;58.00;;;;;;5097349;28;20186;-90
2022/06/10 10:24:54;;;;;;;7.45;2.70;;;21.30;58.90;;;;;;5096564;28;20208;-89
2022/06/10 10:27:25;;;;;;;10.57;2.92;;;21.80;55.30;;;;;;5095837;28;20539;-90
2022/06/10 10:29:58;;;;;;;13.60;2.67;;;21.80;55.50;;;;;;5095620;28;20159;-90
2022/06/10 10:32:28;;;;;;;7.75;1.98;;;21.80;54.40;;;;;;5095875;28;20191;-89
2022/06/10 10:35:03;;;;;;;9.65;2.50;;;21.90;57.00;;;;;;5096483;28;20170;-90
2022/06/10 10:37:35;;;;;;;9.15;3.03;;;21.70;57.10;;;;;;5095645;28;20197;-90
2022/06/10 10:40:16;;;;;;;13.15;3.70;;;21.90;56.50;;;;;;5095543;28;20159;-90
2022/06/10 10:42:43;;;;;;;10.35;3.13;;;21.60;57.90;;;;;;5095133;28;20696;-90
2022/06/10 10:45:21;;;;;;;11.18;3.42;;;21.30;56.00;;;;;;5095250;28;20217;-89
2022/06/10 10:47:51;;;;;;;9.77;2.45;;;21.80;57.40;;;;;;5095607;28;20178;-90
2022/06/10 10:50:21;;;;;;;7.03;2.67;;;21.60;56.10;;;;;;5095371;28;20155;-90
2022/06/10 10:52:48;;;;;;;7.82;2.70;;;21.80;55.20;;;;;;5095426;28;20589;-90
2022/06/10 10:55:13;;;;;;;7.15;2.40;;;22.00;55.80;;;;;;5095195;28;20178;-90
2022/06/10 10:57:43;;;;;;;9.32;2.20;;;22.20;55.00;;;;;;5095121;28;20648;-90
2022/06/10 11:00:14;;;;;;;5.80;2.42;;;22.40;56.00;;;;;;5096260;28;20178;-90
2022/06/10 11:02:51;;;;;;;10.68;2.60;;;22.20;55.50;;;;;;5094875;28;20235;-90
2022/06/10 11:05:37;;;;;;;8.10;2.17;;;22.70;56.30;;;;;;5095494;28;20201;-90
2022/06/10 11:08:08;;;;;;;12.65;3.42;;;22.30;52.90;;;;;;5094986;28;20166;-90
2022/06/10 11:10:38;;;;;;;4.85;2.35;;;22.50;53.70;;;;;;5095020;28;20590;-90
2022/06/10 11:13:07;;;;;;;8.43;2.55;;;22.70;53.10;;;;;;5094295;28;20182;-89
2022/06/10 11:15:34;;;;;;;10.77;3.17;;;22.30;52.40;;;;;;5094792;28;20653;-90
2022/06/10 11:18:01;;;;;;;9.30;2.90;;;22.30;54.10;;;;;;5094988;28;20587;-88
2022/06/10 11:20:36;;;;;;;8.20;2.67;;;22.10;55.30;;;;;;5096111;28;20732;-88
2022/06/10 11:23:25;;;;;;;7.95;2.53;;;21.90;54.60;;;;;;5094493;28;20683;-88
2022/06/10 11:26:12;;;;;;;9.23;3.05;;;22.20;53.30;;;;;;5094501;28;20166;-88
2022/06/10 11:28:42;;;;;;;10.50;3.40;;;22.70;54.60;;;;;;5096082;28;20155;-88
2022/06/10 11:31:22;;;;;;;10.02;2.45;;;22.90;53.60;;;;;;5094554;28;20563;-88
2022/06/10 11:33:52;;;;;;;11.65;3.03;;;22.70;53.40;;;;;;5094364;28;20194;-88
2022/06/10 11:36:45;;;;;;;8.55;2.80;;;22.40;53.20;;;;;;5094388;28;20179;-88
2022/06/10 11:39:33;;;;;;;11.48;2.80;;;22.70;52.60;;;;;;5094393;28;20208;-88
2022/06/10 11:42:27;;;;;;;13.27;3.65;;;22.40;55.00;;;;;;5095531;28;20196;-89
2022/06/10 11:45:02;;;;;;;11.90;3.95;;;22.80;52.30;;;;;;5094270;28;20202;-88
2022/06/10 11:47:29;;;;;;;12.00;3.30;;;22.50;53.90;;;;;;5094169;28;20235;-88
2022/06/10 11:50:00;;;;;;;7.20;3.20;;;22.70;54.10;;;;;;5094756;28;20651;-88
2022/06/10 11:52:34;;;;;;;13.90;4.25;;;22.80;53.10;;;;;;5094284;28;20199;-88
2022/06/10 11:55:27;;;;;;;14.32;3.47;;;22.60;53.90;;;;;;5094094;28;20575;-88
2022/06/10 12:00:59;;;;;;;12.32;3.88;;;22.50;53.60;;;;;;5095796;28;20166;-89
2022/06/10 12:03:48;;;;;;;14.98;3.33;;;22.80;53.80;;;;;;5093820;28;20233;-89
2022/06/10 12:06:17;;;;;;;10.68;2.95;;;22.70;54.10;;;;;;5094061;28;20172;-88
2022/06/10 12:08:50;;;;;;;8.18;2.83;;;22.60;54.20;;;;;;5095090;28;20257;-89
2022/06/10 12:11:44;;;;;;;7.65;2.83;;;22.70;56.30;;;;;;5093896;28;20163;-89
2022/06/10 12:14:40;;;;;;;11.10;3.08;;;22.90;54.20;;;;;;5093678;28;20205;-89
2022/06/10 12:17:19;;;;;;;15.75;3.50;;;22.90;54.90;;;;;;5093653;28;20201;-89
2022/06/10 12:19:52;;;;;;;12.55;3.63;;;22.80;55.30;;;;;;5093653;28;20194;-89
2022/06/10 12:22:19;;;;;;;10.40;3.92;;;22.80;57.20;;;;;;5093474;28;20225;-89
2022/06/10 12:24:47;;;;;;;16.35;4.63;;;22.80;58.10;;;;;;5092390;28;20206;-89
2022/06/10 12:27:23;;;;;;;10.90;3.92;;;22.60;58.90;;;;;;5093339;28;20174;-89
2022/06/10 12:30:02;;;;;;;9.88;3.85;;;23.10;57.50;;;;;;5093372;28;20534;-89
2022/06/10 12:32:51;;;;;;;8.65;3.50;;;23.00;56.30;;;;;;5093193;28;20704;-89
2022/06/10 12:35:26;;;;;;;11.38;3.10;;;23.10;57.60;;;;;;5093178;28;20667;-90
2022/06/10 12:37:57;;;;;;;5.35;2.20;;;23.50;57.10;;;;;;5093298;28;20158;-91
2022/06/10 12:40:31;;;;;;;5.20;2.30;;;23.10;56.90;;;;;;5093225;28;20719;-90
2022/06/10 12:43:30;;;;;;;7.35;1.55;;;22.70;57.80;;;;;;5093071;28;20206;-89
2022/06/10 12:46:41;;;;;;;6.00;1.65;;;22.50;59.10;;;;;;5093025;28;20178;-89
2022/06/10 12:49:24;;;;;;;3.15;1.33;;;22.40;59.60;;;;;;5093091;28;20193;-88
2022/06/10 12:52:07;;;;;;;4.55;1.13;;;22.70;60.30;;;;;;5093144;28;20166;-89
2022/06/10 12:54:48;;;;;;;6.93;2.08;;;22.70;61.40;;;;;;5093057;28;20212;-89
2022/06/10 12:57:39;;;;;;;4.70;1.50;;;23.20;58.80;;;;;;5092931;28;20189;-89
2022/06/10 13:00:34;;;;;;;4.38;1.10;;;22.90;59.20;;;;;;5092865;28;20163;-90
2022/06/10 13:03:23;;;;;;;9.25;1.60;;;22.80;58.10;;;;;;5093111;28;20591;-89
2022/06/10 13:05:49;;;;;;;5.43;1.88;;;22.40;59.70;;;;;;5092666;28;20170;-90
2022/06/10 13:08:34;;;;;;;6.47;1.50;;;22.20;59.50;;;;;;5092677;28;20183;-90
2022/06/10 13:11:01;;;;;;;3.50;1.55;;;21.70;62.70;;;;;;5092670;28;20166;-91
2022/06/10 13:13:28;;;;;;;5.25;2.10;;;21.50;63.00;;;;;;5092638;28;20350;-89
2022/06/10 13:16:15;;;;;;;5.55;1.85;;;21.50;62.90;;;;;;5092568;28;20170;-89
2022/06/10 13:18:53;;;;;;;4.85;1.52;;;21.30;64.10;;;;;;5092291;28;20181;-89
2022/06/10 13:21:31;;;;;;;5.35;1.70;;;21.40;64.10;;;;;;5092467;28;20165;-89